In Rescue
 
Open Full Screen Window  High Contrast Mode
Wind Gusting 00 knots
03
July 23, 2019 12:40 AM EDT
Present Weather: Mist
Weather Information
Wind Direction
  210 °
Wind Speed
  03 kt (3 mph)
Wind Gust
  00 kt (0 mph)
Altimeter
29.80 in
Visibility
5 SM
Temperature
22° C
72° F
Dewpoint
22° C
72° F
Humidity
100%
1hr Rain Fall
00.00 in.
24hr Rain Fall
00.49 in.
Sky Condition
Broken @ 2,400 ft
Scattered @ 1,200 ft
Few @ 300 ft
MVFR

METAR KUKT 230440Z AUTO 21003KT 5SM BR FEW003 SCT012 BKN024 22/22 A2980 RMK A01

FAA Disclaimer: The data displayed is for advisory purposes only and is not to be used for flight planning or operations.